Time;durP1;ratioP1;P1;durP2;ratioP2;P2;SDS_P1;SDS_P2;PMS_P1;PMS_P2;Temp;Humidity;BMP_temperature;BMP_pressure;BME280_temperature;BME280_humidity;BME280_pressure;Samples;Min_cycle;Max_cycle;Signal;HPM_P1;HPM_P2
2021/11/23 00:01:48;;;;;;;3.35;2.40;;;-4.10;87.50;;;;;;5073309;28;20474;-79
2021/11/23 00:04:14;;;;;;;4.07;2.25;;;-4.10;87.50;;;;;;5072930;28;20032;-80
2021/11/23 00:06:40;;;;;;;4.60;2.25;;;-4.10;87.60;;;;;;5073154;28;20020;-82
2021/11/23 00:09:05;;;;;;;7.63;2.20;;;-4.10;87.60;;;;;;5072777;28;20036;-80
2021/11/23 00:11:31;;;;;;;5.47;2.67;;;-4.10;87.60;;;;;;5072855;28;20543;-80
2021/11/23 00:13:58;;;;;;;3.08;2.08;;;-4.10;87.60;;;;;;5072913;28;20028;-81
2021/11/23 00:16:24;;;;;;;7.95;2.65;;;-4.10;87.70;;;;;;5072739;28;20025;-80
2021/11/23 00:18:49;;;;;;;5.45;2.47;;;-4.20;87.80;;;;;;5073232;28;20047;-81
2021/11/23 00:21:16;;;;;;;3.53;2.35;;;-4.10;87.90;;;;;;5072651;28;20468;-79
2021/11/23 00:23:42;;;;;;;6.27;2.37;;;-4.10;87.90;;;;;;5072868;28;20035;-80
2021/11/23 00:26:08;;;;;;;6.93;3.25;;;-4.10;87.90;;;;;;5072494;28;20249;-80
2021/11/23 00:28:34;;;;;;;4.25;2.50;;;-4.10;88.00;;;;;;5075054;28;20025;-79
2021/11/23 00:31:00;;;;;;;4.05;2.53;;;-4.20;87.90;;;;;;5072260;28;20033;-80
2021/11/23 00:33:31;;;;;;;5.78;1.85;;;-4.20;87.90;;;;;;5072611;28;20028;-80
2021/11/23 00:35:57;;;;;;;8.23;3.40;;;-4.10;87.90;;;;;;5072596;28;20031;-80
2021/11/23 00:38:23;;;;;;;4.18;2.17;;;-4.20;87.80;;;;;;5072922;28;20012;-80
2021/11/23 00:40:49;;;;;;;5.47;2.40;;;-4.20;87.90;;;;;;5072472;28;20032;-81
2021/11/23 00:43:15;;;;;;;5.57;2.13;;;-4.20;88.00;;;;;;5073344;28;20028;-80
2021/11/23 00:45:42;;;;;;;4.32;1.80;;;-4.20;88.10;;;;;;5072430;28;20060;-81
2021/11/23 00:48:09;;;;;;;3.97;2.15;;;-4.20;88.10;;;;;;5072659;28;20021;-80
2021/11/23 00:50:35;;;;;;;6.55;2.25;;;-4.20;88.10;;;;;;5072245;28;20160;-81
2021/11/23 00:53:02;;;;;;;4.20;2.90;;;-4.20;88.20;;;;;;5072803;28;20181;-80
2021/11/23 00:55:30;;;;;;;2.20;1.63;;;-4.20;88.00;;;;;;5072633;28;20028;-82
2021/11/23 00:57:57;;;;;;;4.80;2.15;;;-4.20;88.00;;;;;;5074060;28;20051;-81
2021/11/23 01:00:23;;;;;;;4.15;1.63;;;-4.30;88.10;;;;;;5074138;28;20432;-82
2021/11/23 01:02:49;;;;;;;3.80;2.72;;;-4.30;88.30;;;;;;5075108;28;20458;-81
2021/11/23 01:05:15;;;;;;;2.97;1.83;;;-4.30;88.40;;;;;;5078370;28;20036;-81
2021/11/23 01:07:41;;;;;;;2.92;2.33;;;-4.30;88.40;;;;;;5079175;28;20024;-81
2021/11/23 01:10:08;;;;;;;4.10;1.48;;;-4.30;88.30;;;;;;5078479;28;20037;-82
2021/11/23 01:12:36;;;;;;;3.65;2.03;;;-4.30;88.30;;;;;;5076409;28;20021;-80
2021/11/23 01:15:03;;;;;;;2.90;2.00;;;-4.30;88.30;;;;;;5076182;28;20032;-81
2021/11/23 01:17:29;;;;;;;4.15;1.73;;;-4.30;88.30;;;;;;5076135;28;20059;-81
2021/11/23 01:19:56;;;;;;;4.32;1.92;;;-4.20;88.20;;;;;;5076172;28;20056;-81
2021/11/23 01:22:22;;;;;;;4.47;2.13;;;-4.30;88.20;;;;;;5076233;28;20081;-80
2021/11/23 01:24:48;;;;;;;2.67;2.20;;;-4.30;88.30;;;;;;5076159;28;20435;-81
2021/11/23 01:27:13;;;;;;;2.80;1.77;;;-4.30;88.40;;;;;;5076055;28;20062;-81
2021/11/23 01:29:39;;;;;;;3.70;2.55;;;-4.30;88.50;;;;;;5075783;28;20131;-81
2021/11/23 01:32:06;;;;;;;6.10;2.70;;;-4.30;88.60;;;;;;5077054;28;20024;-80
2021/11/23 01:34:32;;;;;;;3.05;1.90;;;-4.30;88.50;;;;;;5076966;28;20542;-82
2021/11/23 01:36:58;;;;;;;5.25;2.50;;;-4.30;88.50;;;;;;5076890;28;20028;-80
2021/11/23 01:39:24;;;;;;;2.85;1.58;;;-4.40;88.50;;;;;;5076742;28;20489;-80
2021/11/23 01:41:50;;;;;;;5.73;2.27;;;-4.40;88.70;;;;;;5076123;28;20017;-80
2021/11/23 01:44:16;;;;;;;3.80;2.05;;;-4.40;88.90;;;;;;5075798;28;20405;-81
2021/11/23 01:46:42;;;;;;;4.53;2.20;;;-4.30;88.80;;;;;;5075457;28;20028;-79
2021/11/23 01:49:08;;;;;;;6.80;2.55;;;-4.40;88.80;;;;;;5074190;28;20037;-80
2021/11/23 01:51:34;;;;;;;4.97;2.10;;;-4.40;88.80;;;;;;5075450;28;20481;-78
2021/11/23 01:54:00;;;;;;;3.08;1.65;;;-4.40;88.70;;;;;;5075327;28;20024;-81
2021/11/23 01:56:26;;;;;;;3.00;1.83;;;-4.40;88.80;;;;;;5075170;28;20024;-80
2021/11/23 01:58:52;;;;;;;3.88;2.00;;;-4.30;88.70;;;;;;5075267;28;20371;-80
2021/11/23 02:01:18;;;;;;;2.92;1.98;;;-4.40;88.50;;;;;;5075195;28;20032;-80
2021/11/23 02:03:43;;;;;;;4.25;2.10;;;-4.30;88.60;;;;;;5076075;28;20016;-79
2021/11/23 02:06:09;;;;;;;4.38;1.90;;;-4.30;88.70;;;;;;5075454;28;20111;-78
2021/11/23 02:08:36;;;;;;;4.68;2.35;;;-4.30;88.60;;;;;;5074978;28;20107;-79
2021/11/23 02:11:03;;;;;;;3.35;1.85;;;-4.30;88.60;;;;;;5074952;28;20016;-79
2021/11/23 02:13:29;;;;;;;8.05;2.72;;;-4.30;88.60;;;;;;5073774;28;20063;-78
2021/11/23 02:15:57;;;;;;;3.50;2.00;;;-4.30;88.60;;;;;;5074774;28;20385;-79
2021/11/23 02:18:27;;;;;;;3.58;1.75;;;-4.30;88.60;;;;;;5075248;28;20062;-78
2021/11/23 02:20:54;;;;;;;5.95;1.70;;;-4.40;88.50;;;;;;5075956;28;20025;-78
2021/11/23 02:23:20;;;;;;;4.63;2.30;;;-4.40;88.60;;;;;;5075453;28;20027;-78
2021/11/23 02:25:47;;;;;;;4.32;1.85;;;-4.40;88.50;;;;;;5074698;28;20111;-79
2021/11/23 02:28:14;;;;;;;4.50;2.50;;;-4.40;88.60;;;;;;5074724;28;20037;-78
2021/11/23 02:30:46;;;;;;;2.38;2.10;;;-4.40;88.70;;;;;;5074492;28;20111;-79
2021/11/23 02:33:14;;;;;;;3.92;2.13;;;-4.40;88.80;;;;;;5074475;28;20112;-78
2021/11/23 02:35:40;;;;;;;3.45;2.00;;;-4.40;88.80;;;;;;5074396;28;20441;-79
2021/11/23 02:38:06;;;;;;;6.65;3.38;;;-4.40;88.80;;;;;;5074472;28;20055;-79
2021/11/23 02:40:32;;;;;;;4.18;1.83;;;-4.40;88.80;;;;;;5074228;28;20017;-80
2021/11/23 02:42:58;;;;;;;4.88;2.03;;;-4.40;88.90;;;;;;5074364;28;20052;-78
2021/11/23 02:45:27;;;;;;;6.38;1.75;;;-4.40;88.90;;;;;;5074017;28;20036;-78
2021/11/23 02:47:58;;;;;;;3.85;1.95;;;-4.50;88.90;;;;;;5074157;28;20025;-78
2021/11/23 02:50:26;;;;;;;7.35;3.00;;;-4.50;88.90;;;;;;5073922;28;20066;-80
2021/11/23 02:52:53;;;;;;;5.13;2.45;;;-4.50;89.00;;;;;;5074200;28;20059;-80
2021/11/23 02:55:22;;;;;;;2.63;1.98;;;-4.50;89.10;;;;;;5074203;28;20385;-80
2021/11/23 02:57:48;;;;;;;5.70;2.63;;;-4.40;89.20;;;;;;5074209;28;20024;-78
2021/11/23 03:00:18;;;;;;;4.93;2.13;;;-4.40;89.00;;;;;;5074047;28;20028;-80
2021/11/23 03:02:45;;;;;;;2.72;1.55;;;-4.40;88.90;;;;;;5074007;28;20062;-80
2021/11/23 03:05:12;;;;;;;4.20;2.25;;;-4.40;88.80;;;;;;5074334;28;20025;-80
2021/11/23 03:07:37;;;;;;;5.07;2.10;;;-4.50;88.80;;;;;;5074034;28;20028;-81
2021/11/23 03:10:07;;;;;;;5.18;3.00;;;-4.50;88.90;;;;;;5073937;28;20033;-80
2021/11/23 03:12:34;;;;;;;3.95;1.77;;;-4.50;88.90;;;;;;5073115;28;20573;-81
2021/11/23 03:15:00;;;;;;;5.18;1.92;;;-4.50;88.90;;;;;;5076774;28;20082;-81
2021/11/23 03:17:26;;;;;;;6.40;2.25;;;-4.50;88.90;;;;;;5075679;28;20549;-80
2021/11/23 03:19:52;;;;;;;4.72;2.50;;;-4.50;88.90;;;;;;5073797;28;20103;-80
2021/11/23 03:22:18;;;;;;;4.35;2.30;;;-4.50;88.90;;;;;;5073349;28;20020;-78
2021/11/23 03:24:45;;;;;;;6.43;1.63;;;-4.50;88.90;;;;;;5073051;28;20024;-79
2021/11/23 03:27:11;;;;;;;2.95;2.28;;;-4.50;88.80;;;;;;5074522;28;20052;-79
2021/11/23 03:29:38;;;;;;;4.13;2.15;;;-4.50;88.90;;;;;;5073903;28;20457;-79
2021/11/23 03:32:06;;;;;;;5.32;1.98;;;-4.50;89.10;;;;;;5073833;28;20059;-79
2021/11/23 03:34:37;;;;;;;5.75;2.38;;;-4.60;89.10;;;;;;5072961;28;20346;-80
2021/11/23 03:37:12;;;;;;;4.63;2.85;;;-4.50;89.20;;;;;;5073792;28;20032;-79
2021/11/23 03:39:39;;;;;;;3.03;2.30;;;-4.50;89.10;;;;;;5074650;28;20070;-80
2021/11/23 03:42:06;;;;;;;2.95;2.03;;;-4.50;89.00;;;;;;5073652;28;20021;-81
2021/11/23 03:44:33;;;;;;;5.20;3.10;;;-4.50;88.90;;;;;;5073737;28;20149;-81
2021/11/23 03:46:59;;;;;;;5.43;2.65;;;-4.50;89.00;;;;;;5073245;28;20420;-78
2021/11/23 03:49:25;;;;;;;5.43;2.33;;;-4.50;89.10;;;;;;5070056;28;20181;-79
2021/11/23 03:51:51;;;;;;;5.05;2.45;;;-4.50;89.10;;;;;;5073408;28;20104;-79
2021/11/23 03:54:17;;;;;;;5.82;2.30;;;-4.50;89.10;;;;;;5072595;28;20020;-80
2021/11/23 03:56:43;;;;;;;5.30;2.70;;;-4.50;89.20;;;;;;5073261;28;20474;-80
2021/11/23 03:59:09;;;;;;;6.10;2.25;;;-4.50;89.20;;;;;;5073224;28;20023;-80
2021/11/23 04:01:36;;;;;;;7.45;3.08;;;-4.50;89.30;;;;;;5074071;28;20091;-79
2021/11/23 04:04:01;;;;;;;5.97;3.67;;;-4.50;89.20;;;;;;5073350;28;20052;-80
2021/11/23 04:06:28;;;;;;;7.85;3.05;;;-4.50;89.40;;;;;;5072911;28;20052;-80
2021/11/23 04:08:54;;;;;;;5.75;2.53;;;-4.50;89.70;;;;;;5072875;28;20021;-79
2021/11/23 04:11:20;;;;;;;4.03;2.00;;;-4.50;89.70;;;;;;5072986;28;20037;-80
2021/11/23 04:13:46;;;;;;;3.40;2.30;;;-4.40;89.80;;;;;;5073185;28;20078;-79
2021/11/23 04:16:12;;;;;;;8.18;2.63;;;-4.40;89.90;;;;;;5073003;28;20389;-80
2021/11/23 04:18:38;;;;;;;4.20;1.95;;;-4.40;90.00;;;;;;5072074;28;20021;-79
2021/11/23 04:21:04;;;;;;;4.32;2.45;;;-4.30;90.00;;;;;;5072739;28;20074;-80
2021/11/23 04:23:30;;;;;;;3.55;2.30;;;-4.20;90.00;;;;;;5072840;28;20025;-80
2021/11/23 04:25:56;;;;;;;7.82;3.75;;;-4.20;89.70;;;;;;5072944;28;20550;-80
2021/11/23 04:28:22;;;;;;;4.32;2.33;;;-4.10;89.60;;;;;;5072929;28;20032;-79
2021/11/23 04:30:48;;;;;;;3.20;2.25;;;-4.10;89.40;;;;;;5073721;28;20071;-79
2021/11/23 04:33:14;;;;;;;12.98;2.58;;;-4.10;89.30;;;;;;5072863;28;20060;-79
2021/11/23 04:35:41;;;;;;;5.82;2.15;;;-4.00;89.40;;;;;;5074162;28;20024;-79
2021/11/23 04:38:10;;;;;;;5.35;2.90;;;-4.00;89.40;;;;;;5077792;28;20017;-80
2021/11/23 04:40:36;;;;;;;9.70;2.85;;;-3.90;89.50;;;;;;5075428;28;20039;-80
2021/11/23 04:43:02;;;;;;;7.20;2.40;;;-3.90;89.40;;;;;;5077011;28;20025;-80
2021/11/23 04:45:28;;;;;;;5.72;2.83;;;-3.90;89.40;;;;;;5077274;28;20048;-82
2021/11/23 04:47:56;;;;;;;5.43;3.25;;;-3.80;89.30;;;;;;5076808;28;20028;-80
2021/11/23 04:50:21;;;;;;;5.85;3.60;;;-3.80;89.20;;;;;;5076770;28;20120;-80
2021/11/23 04:52:49;;;;;;;6.72;2.90;;;-3.70;89.20;;;;;;5077269;28;20056;-79
2021/11/23 04:55:15;;;;;;;;;;;-3.70;89.10;;;;;;5080590;28;20025;-80
2021/11/23 04:57:41;;;;;;;6.32;2.72;;;-3.70;89.10;;;;;;5075968;28;19919;-81
2021/11/23 05:00:10;;;;;;;5.72;2.10;;;-3.60;89.00;;;;;;5076276;28;20028;-79
2021/11/23 05:02:35;;;;;;;5.65;2.75;;;-3.60;89.10;;;;;;5076418;28;20390;-80
2021/11/23 05:05:01;;;;;;;6.10;2.97;;;-3.60;89.10;;;;;;5076000;28;20024;-80
2021/11/23 05:07:27;;;;;;;6.28;2.30;;;-3.60;89.00;;;;;;5076271;28;20454;-81
2021/11/23 05:09:53;;;;;;;7.40;2.88;;;-3.60;89.10;;;;;;5075301;28;20108;-79
2021/11/23 05:12:20;;;;;;;6.35;2.25;;;-3.60;89.20;;;;;;5076228;28;20024;-80
2021/11/23 05:14:46;;;;;;;5.40;2.08;;;-3.60;89.30;;;;;;5075232;28;20500;-81
2021/11/23 05:17:12;;;;;;;6.75;2.80;;;-3.50;89.50;;;;;;5077829;28;20033;-81
2021/11/23 05:19:38;;;;;;;5.13;2.33;;;-3.50;89.40;;;;;;5075940;28;20426;-80
2021/11/23 05:22:05;;;;;;;6.30;2.05;;;-3.50;89.40;;;;;;5075893;28;20021;-81
2021/11/23 05:24:31;;;;;;;5.68;2.10;;;-3.50;89.50;;;;;;5075578;28;20029;-81
2021/11/23 05:26:56;;;;;;;5.70;2.17;;;-3.50;89.80;;;;;;5075929;28;20047;-81
2021/11/23 05:29:22;;;;;;;3.20;1.85;;;-3.50;90.30;;;;;;5076886;28;20036;-81
2021/11/23 05:31:48;;;;;;;7.72;3.30;;;-3.60;90.00;;;;;;5077260;28;20036;-80
2021/11/23 05:34:14;;;;;;;5.50;2.42;;;-3.60;90.10;;;;;;5077785;28;20028;-80
2021/11/23 05:36:40;;;;;;;4.43;2.28;;;-3.70;90.10;;;;;;5075844;28;20035;-81
2021/11/23 05:39:05;;;;;;;3.40;2.40;;;-3.70;90.30;;;;;;5075538;28;20089;-81
2021/11/23 05:41:32;;;;;;;5.57;2.05;;;-3.60;90.40;;;;;;5073785;28;20031;-80
2021/11/23 05:43:57;;;;;;;4.28;2.05;;;-3.60;90.60;;;;;;5075455;28;20120;-84
2021/11/23 05:46:23;;;;;;;9.35;2.22;;;-3.70;91.00;;;;;;5075098;28;20056;-81
2021/11/23 05:48:49;;;;;;;11.20;4.18;;;-3.70;90.80;;;;;;5074793;28;20032;-80
2021/11/23 05:51:15;;;;;;;5.22;2.75;;;-3.70;90.90;;;;;;5073880;28;20067;-80
2021/11/23 05:53:41;;;;;;;5.93;2.47;;;-3.70;91.00;;;;;;5074438;28;20032;-81
2021/11/23 05:56:07;;;;;;;5.40;2.58;;;-3.70;91.10;;;;;;5063606;28;20068;-83
2021/11/23 05:58:33;;;;;;;4.90;2.80;;;-3.70;91.20;;;;;;5057760;28;20359;-83
2021/11/23 06:00:59;;;;;;;4.30;2.83;;;-3.70;91.30;;;;;;5074738;28;20025;-79
2021/11/23 06:03:25;;;;;;;5.13;2.50;;;-3.60;91.40;;;;;;5069976;28;20036;-79
2021/11/23 06:05:51;;;;;;;8.55;4.22;;;-3.50;91.50;;;;;;5074947;28;20028;-81
2021/11/23 06:08:17;;;;;;;3.58;2.30;;;-3.40;91.50;;;;;;5072217;28;20389;-80
2021/11/23 06:10:43;;;;;;;4.57;2.25;;;-3.30;91.40;;;;;;5074652;28;20036;-80
2021/11/23 06:13:10;;;;;;;9.32;2.67;;;-3.30;91.40;;;;;;5073037;28;20025;-81
2021/11/23 06:15:38;;;;;;;5.70;2.28;;;-3.30;91.30;;;;;;5073033;28;20504;-80
2021/11/23 06:18:04;;;;;;;;;;;-3.20;91.20;;;;;;5073578;28;20128;-80
2021/11/23 06:20:30;;;;;;;5.28;2.75;;;-3.10;91.10;;;;;;5074231;28;20318;-80
2021/11/23 06:22:58;;;;;;;9.02;2.97;;;-3.10;91.00;;;;;;5074348;28;20036;-80
2021/11/23 06:25:24;;;;;;;5.13;3.05;;;-3.10;90.90;;;;;;5074252;28;20035;-79
2021/11/23 06:27:50;;;;;;;10.90;3.05;;;-3.00;90.90;;;;;;5074459;28;20021;-80
2021/11/23 06:30:17;;;;;;;14.27;3.05;;;-2.90;90.80;;;;;;5075813;28;20032;-79
2021/11/23 06:32:43;;;;;;;4.80;2.40;;;-2.90;90.70;;;;;;5074348;28;20447;-80
2021/11/23 06:35:09;;;;;;;6.47;2.47;;;-2.70;90.60;;;;;;5075862;28;20033;-80
2021/11/23 06:37:35;;;;;;;4.25;2.78;;;-2.80;90.40;;;;;;5072944;28;20111;-80
2021/11/23 06:40:02;;;;;;;4.53;2.87;;;-2.80;90.30;;;;;;5074261;28;20492;-79
2021/11/23 06:42:28;;;;;;;6.00;2.92;;;-2.70;90.30;;;;;;5073973;28;20111;-79
2021/11/23 06:44:57;;;;;;;7.25;2.78;;;-2.70;90.30;;;;;;5074084;28;20120;-80
2021/11/23 06:47:26;;;;;;;9.40;2.72;;;-2.70;90.30;;;;;;5072948;28;20093;-81
2021/11/23 06:49:53;;;;;;;5.13;3.35;;;-2.70;90.30;;;;;;5074413;28;20115;-82
2021/11/23 06:52:20;;;;;;;4.68;3.03;;;-2.60;90.20;;;;;;5075364;28;20017;-80
2021/11/23 06:54:46;;;;;;;6.43;2.75;;;-2.60;90.30;;;;;;5074484;28;20079;-82
2021/11/23 06:57:12;;;;;;;5.07;3.13;;;-2.60;90.20;;;;;;5073701;28;20076;-80
2021/11/23 06:59:39;;;;;;;8.52;2.65;;;-2.60;90.30;;;;;;5072755;28;20051;-81
2021/11/23 07:02:06;;;;;;;9.75;2.83;;;-2.70;90.40;;;;;;5073467;28;20017;-80
2021/11/23 07:04:32;;;;;;;3.90;3.17;;;-2.70;90.70;;;;;;5072217;28;20043;-80
2021/11/23 07:06:58;;;;;;;4.13;2.87;;;-2.70;90.80;;;;;;5073975;28;20016;-79
2021/11/23 07:09:24;;;;;;;5.13;3.03;;;-2.70;91.10;;;;;;5073301;28;20089;-79
2021/11/23 07:11:50;;;;;;;9.93;3.50;;;-2.60;91.20;;;;;;5073668;28;20025;-81
2021/11/23 07:14:16;;;;;;;4.90;3.05;;;-2.70;91.30;;;;;;5073829;28;20036;-81
2021/11/23 07:16:42;;;;;;;8.85;3.28;;;-2.80;91.40;;;;;;5073343;28;20116;-80
2021/11/23 07:19:08;;;;;;;7.07;3.40;;;-2.70;91.70;;;;;;5073543;28;20073;-80
2021/11/23 07:21:34;;;;;;;4.20;2.58;;;-2.60;91.60;;;;;;5073498;28;20040;-80
2021/11/23 07:24:01;;;;;;;4.80;2.63;;;-2.60;91.30;;;;;;5073463;28;20023;-80
2021/11/23 07:26:29;;;;;;;4.32;2.28;;;-2.60;91.20;;;;;;5073345;28;20381;-81
2021/11/23 07:28:55;;;;;;;6.55;3.38;;;-2.60;91.30;;;;;;5072926;28;20020;-80
2021/11/23 07:31:21;;;;;;;7.93;3.20;;;-2.60;91.40;;;;;;5073163;28;20390;-80
2021/11/23 07:33:47;;;;;;;6.63;4.18;;;-2.60;91.30;;;;;;5073103;28;20031;-81
2021/11/23 07:36:16;;;;;;;9.15;3.95;;;-2.60;91.30;;;;;;5073198;28;20094;-81
2021/11/23 07:38:42;;;;;;;10.05;5.25;;;-2.50;91.20;;;;;;5072844;28;20123;-80
2021/11/23 07:41:08;;;;;;;9.45;7.25;;;-2.40;91.10;;;;;;5073428;28;20100;-80
2021/11/23 07:43:34;;;;;;;6.63;3.45;;;-2.40;91.00;;;;;;5072682;28;20478;-80
2021/11/23 07:46:00;;;;;;;7.60;3.72;;;-2.40;90.90;;;;;;5073066;28;20101;-82
2021/11/23 07:48:25;;;;;;;7.45;3.60;;;-2.50;90.80;;;;;;5072872;28;20070;-79
2021/11/23 07:50:51;;;;;;;5.80;3.20;;;-2.50;91.00;;;;;;5075811;28;20037;-81
2021/11/23 07:53:18;;;;;;;6.50;4.28;;;-2.50;91.00;;;;;;5073551;28;20016;-81
2021/11/23 07:55:49;;;;;;;6.03;3.40;;;-2.50;91.10;;;;;;5072831;28;20024;-80
2021/11/23 07:58:15;;;;;;;6.85;3.92;;;-2.50;91.00;;;;;;5072741;28;20461;-80
2021/11/23 08:00:42;;;;;;;9.32;3.70;;;-2.50;91.00;;;;;;5072833;28;20036;-82
2021/11/23 08:03:09;;;;;;;6.57;4.07;;;-2.60;90.90;;;;;;5072866;28;20026;-81
2021/11/23 08:05:36;;;;;;;;;;;-2.70;90.90;;;;;;5073221;28;20163;-80
2021/11/23 08:08:03;;;;;;;;;;;-2.70;91.00;;;;;;5073073;28;19904;-82
2021/11/23 08:10:29;;;;;;;9.48;5.13;;;-2.80;91.00;;;;;;5070341;28;19916;-81
2021/11/23 08:12:55;;;;;;;6.72;4.13;;;-2.70;91.20;;;;;;5072594;28;20493;-80
2021/11/23 08:15:21;;;;;;;8.32;5.18;;;-2.60;91.40;;;;;;5072800;28;20033;-81
2021/11/23 08:17:48;;;;;;;9.20;4.13;;;-2.40;91.20;;;;;;5072414;28;20466;-82
2021/11/23 08:20:14;;;;;;;11.77;3.50;;;-1.60;91.90;;;;;;5072425;28;20079;-80
2021/11/23 08:22:40;;;;;;;7.43;3.97;;;-1.00;91.20;;;;;;5072696;28;20028;-80
2021/11/23 08:25:07;;;;;;;11.98;5.10;;;-0.70;90.00;;;;;;5072890;28;20436;-80
2021/11/23 08:27:33;;;;;;;6.30;3.45;;;-0.60;89.50;;;;;;5072378;28;20048;-79
2021/11/23 08:30:00;;;;;;;7.47;4.93;;;-0.50;88.30;;;;;;5072528;28;20501;-80
2021/11/23 08:32:27;;;;;;;9.07;5.85;;;-0.40;87.20;;;;;;5072444;28;20111;-80
2021/11/23 08:34:52;;;;;;;6.60;3.88;;;-0.30;86.50;;;;;;5072658;28;20060;-80
2021/11/23 08:37:18;;;;;;;8.68;4.13;;;-0.20;85.70;;;;;;5072498;28;20059;-81
2021/11/23 08:39:45;;;;;;;7.80;4.05;;;-0.20;84.90;;;;;;5072252;28;20195;-80
2021/11/23 08:42:12;;;;;;;9.48;4.22;;;-0.10;84.40;;;;;;5072502;28;20028;-80
2021/11/23 08:44:37;;;;;;;5.70;4.20;;;0.00;83.90;;;;;;5071062;28;20078;-81
2021/11/23 08:47:04;;;;;;;5.05;3.67;;;-0.10;82.90;;;;;;5072457;28;20028;-80
2021/11/23 08:49:30;;;;;;;8.50;3.42;;;-0.20;83.00;;;;;;5070870;28;20088;-81
2021/11/23 08:51:57;;;;;;;10.57;4.20;;;-0.30;83.50;;;;;;5072739;28;20063;-80
2021/11/23 08:54:23;;;;;;;10.00;4.45;;;-0.50;83.70;;;;;;5070918;28;20085;-80
2021/11/23 08:57:22;;;;;;;6.70;3.88;;;-0.20;84.70;;;;;;5072781;28;20491;-81
2021/11/23 08:59:43;;;;;;;7.85;4.13;;;0.20;84.10;;;;;;5069224;28;20145;-81
2021/11/23 09:02:13;;;;;;;6.25;3.45;;;0.50;82.80;;;;;;5072448;28;20027;-81
2021/11/23 09:04:41;;;;;;;8.02;4.60;;;0.80;81.60;;;;;;5072167;28;20513;-80
2021/11/23 09:07:09;;;;;;;8.45;5.40;;;1.10;80.80;;;;;;5072713;28;20020;-80
2021/11/23 09:09:38;;;;;;;10.45;5.25;;;1.30;79.70;;;;;;5071847;28;20036;-82
2021/11/23 09:12:04;;;;;;;10.48;6.30;;;1.50;78.50;;;;;;5070659;28;20493;-80
2021/11/23 09:14:32;;;;;;;5.47;3.38;;;1.80;77.70;;;;;;5072024;28;20064;-80
2021/11/23 09:16:58;;;;;;;8.02;3.50;;;1.80;76.50;;;;;;5072069;28;20431;-81
2021/11/23 09:19:28;;;;;;;6.55;3.45;;;1.90;75.50;;;;;;5071941;28;20052;-81
2021/11/23 09:21:54;;;;;;;5.55;3.17;;;2.20;75.10;;;;;;5073361;28;20029;-80
2021/11/23 09:24:21;;;;;;;8.50;3.85;;;1.90;73.70;;;;;;5075718;28;20028;-80
2021/11/23 09:26:50;;;;;;;7.47;3.50;;;1.30;73.40;;;;;;5075450;28;20060;-82
2021/11/23 09:29:20;;;;;;;9.48;3.70;;;0.80;74.80;;;;;;5075494;28;20040;-82
2021/11/23 09:31:46;;;;;;;6.72;4.18;;;0.40;76.00;;;;;;5075436;28;20021;-80
2021/11/23 09:34:13;;;;;;;7.53;3.47;;;0.00;77.10;;;;;;5073933;28;20481;-80
2021/11/23 09:36:40;;;;;;;7.82;3.92;;;-0.20;77.90;;;;;;5075415;28;20056;-82
2021/11/23 09:39:07;;;;;;;5.22;3.35;;;-0.40;78.70;;;;;;5075265;28;20029;-79
2021/11/23 09:41:34;;;;;;;5.67;4.27;;;-0.60;79.30;;;;;;5075543;28;20078;-79
2021/11/23 09:44:04;;;;;;;13.48;4.82;;;-0.60;79.90;;;;;;5075863;28;20040;-79
2021/11/23 09:46:35;;;;;;;5.90;3.53;;;-0.60;80.20;;;;;;5076062;28;20029;-80
2021/11/23 09:49:02;;;;;;;6.53;4.75;;;-0.50;80.70;;;;;;5074949;28;20028;-80
2021/11/23 09:51:28;;;;;;;6.85;4.32;;;-0.30;81.00;;;;;;5074959;28;20025;-82
2021/11/23 09:53:56;;;;;;;9.17;4.67;;;0.00;80.70;;;;;;5074737;28;20066;-80
2021/11/23 09:56:22;;;;;;;;;;;0.20;80.20;;;;;;5075039;28;20069;-81
2021/11/23 09:58:54;;;;;;;9.15;3.72;;;0.30;80.00;;;;;;5075616;28;19988;-81
2021/11/23 10:01:25;;;;;;;10.43;3.67;;;0.50;80.40;;;;;;5075002;28;20028;-80
2021/11/23 10:03:53;;;;;;;6.13;3.40;;;0.90;79.80;;;;;;5074991;28;20385;-81
2021/11/23 10:06:22;;;;;;;9.85;4.80;;;1.20;77.90;;;;;;5074997;28;20016;-79
2021/11/23 10:08:51;;;;;;;4.70;3.28;;;1.40;76.50;;;;;;5075239;28;20052;-82
2021/11/23 10:11:27;;;;;;;9.98;5.38;;;1.60;75.00;;;;;;5074545;28;20131;-81
2021/11/23 10:13:56;;;;;;;6.15;4.10;;;2.00;74.70;;;;;;5075535;28;20465;-81
2021/11/23 10:16:23;;;;;;;7.60;4.65;;;2.10;73.50;;;;;;5074513;28;20059;-83
2021/11/23 10:18:52;;;;;;;9.80;3.72;;;2.10;72.90;;;;;;5075170;28;20028;-81
2021/11/23 10:21:24;;;;;;;6.05;3.13;;;1.90;72.40;;;;;;5074699;28;20085;-81
2021/11/23 10:23:55;;;;;;;5.85;3.33;;;1.60;72.30;;;;;;5072808;28;20020;-80
2021/11/23 10:26:27;;;;;;;5.75;3.13;;;1.20;72.80;;;;;;5074139;28;20024;-81
2021/11/23 10:29:06;;;;;;;8.68;2.80;;;0.90;73.90;;;;;;5074317;28;20044;-80
2021/11/23 10:31:38;;;;;;;10.48;5.07;;;0.80;74.30;;;;;;5073066;28;20485;-79
2021/11/23 10:34:06;;;;;;;8.82;3.80;;;0.70;74.90;;;;;;5073805;28;20020;-79
2021/11/23 10:36:34;;;;;;;5.38;3.33;;;0.70;75.00;;;;;;5077509;28;20029;-82
2021/11/23 10:39:12;;;;;;;8.52;4.25;;;0.70;75.20;;;;;;5075199;28;20094;-82
2021/11/23 10:41:42;;;;;;;10.98;4.68;;;0.70;75.20;;;;;;5075365;28;20031;-81
2021/11/23 10:44:31;;;;;;;7.07;4.00;;;0.80;75.30;;;;;;5074574;28;20072;-80
2021/11/23 10:47:06;;;;;;;8.82;4.53;;;0.90;75.50;;;;;;5073825;28;20016;-81
2021/11/23 10:49:33;;;;;;;10.45;4.20;;;1.00;75.00;;;;;;5073999;28;20033;-80
2021/11/23 10:52:00;;;;;;;10.70;4.03;;;1.00;74.90;;;;;;5073752;28;20457;-81
2021/11/23 10:54:33;;;;;;;9.15;4.32;;;1.00;74.70;;;;;;5073969;28;20039;-81
2021/11/23 10:57:09;;;;;;;7.15;3.95;;;1.00;74.60;;;;;;5073791;28;20342;-80
2021/11/23 10:59:38;;;;;;;10.75;3.85;;;1.00;74.20;;;;;;5074138;28;20351;-80
2021/11/23 11:02:05;;;;;;;7.28;3.78;;;0.70;74.10;;;;;;5073692;28;20338;-81
2021/11/23 11:04:34;;;;;;;11.38;3.70;;;0.60;74.20;;;;;;5073770;28;20020;-81
2021/11/23 11:07:02;;;;;;;6.40;3.30;;;0.40;74.50;;;;;;5073572;28;20032;-81
2021/11/23 11:09:29;;;;;;;7.25;3.45;;;0.20;75.00;;;;;;5073600;28;20033;-79
2021/11/23 11:11:55;;;;;;;8.70;4.93;;;0.10;75.60;;;;;;5073770;28;20528;-80
2021/11/23 11:14:22;;;;;;;4.93;3.83;;;0.00;76.00;;;;;;5073322;28;20032;-80
2021/11/23 11:16:49;;;;;;;12.65;5.05;;;0.00;77.20;;;;;;5073572;28;20027;-81
2021/11/23 11:19:16;;;;;;;6.88;4.38;;;0.10;76.80;;;;;;5073627;28;20051;-80
2021/11/23 11:21:48;;;;;;;11.02;4.68;;;0.20;76.80;;;;;;5073006;28;20031;-81
2021/11/23 11:24:42;;;;;;;13.20;4.40;;;0.40;76.70;;;;;;5073356;28;20027;-81
2021/11/23 11:27:33;;;;;;;9.40;4.32;;;0.50;76.20;;;;;;5073887;28;20394;-78
2021/11/23 11:30:21;;;;;;;12.18;6.80;;;0.50;75.90;;;;;;5073236;28;20510;-81
2021/11/23 11:32:49;;;;;;;11.15;4.20;;;0.60;76.30;;;;;;5071779;28;20025;-80
2021/11/23 11:35:23;;;;;;;6.60;3.63;;;0.40;76.00;;;;;;5073236;28;20029;-83
2021/11/23 11:37:49;;;;;;;8.13;4.90;;;0.30;76.10;;;;;;5073431;28;20020;-81
2021/11/23 11:40:29;;;;;;;8.07;4.85;;;0.20;76.40;;;;;;5073161;28;20500;-79
2021/11/23 11:43:05;;;;;;;5.28;3.17;;;0.10;76.80;;;;;;5073240;28;20031;-82
2021/11/23 11:45:51;;;;;;;10.07;3.90;;;0.00;76.70;;;;;;5074587;28;20416;-80
2021/11/23 11:48:34;;;;;;;9.70;3.40;;;-0.10;77.10;;;;;;5073643;28;20029;-80
2021/11/23 11:51:15;;;;;;;7.63;4.03;;;-0.20;77.20;;;;;;5072755;28;20037;-79
2021/11/23 11:53:44;;;;;;;10.60;3.75;;;-0.20;77.30;;;;;;5072683;28;20032;-81
2021/11/23 11:56:12;;;;;;;6.20;3.40;;;-0.20;77.60;;;;;;5073049;28;20032;-82
2021/11/23 11:58:46;;;;;;;6.43;3.75;;;-0.20;77.70;;;;;;5054744;28;20025;-80
2021/11/23 12:01:25;;;;;;;10.90;6.03;;;-0.10;78.00;;;;;;5072837;28;20473;-80
2021/11/23 12:04:10;;;;;;;6.88;3.33;;;0.00;78.20;;;;;;5072353;28;20037;-82
2021/11/23 12:06:54;;;;;;;7.90;3.65;;;0.10;78.00;;;;;;5071498;28;20036;-79
2021/11/23 12:09:29;;;;;;;11.68;4.07;;;0.20;77.50;;;;;;5072530;28;20025;-80
2021/11/23 12:12:00;;;;;;;11.88;3.58;;;0.00;78.00;;;;;;5072777;28;20025;-81
2021/11/23 12:14:30;;;;;;;5.35;2.90;;;0.00;77.60;;;;;;5072329;28;20497;-81
2021/11/23 12:17:10;;;;;;;5.75;3.72;;;-0.10;78.30;;;;;;5072555;28;20021;-79
2021/11/23 12:20:01;;;;;;;4.65;2.42;;;-0.20;77.80;;;;;;5072668;28;20027;-81
2021/11/23 12:22:26;;;;;;;6.55;3.45;;;-0.30;78.00;;;;;;5070943;28;20450;-80
2021/11/23 12:24:53;;;;;;;9.55;3.63;;;-0.50;78.20;;;;;;5072329;28;20073;-80
2021/11/23 12:27:21;;;;;;;13.65;3.45;;;-0.60;78.50;;;;;;5072936;28;20020;-80
2021/11/23 12:29:53;;;;;;;6.85;3.08;;;-0.60;78.80;;;;;;5072780;28;20093;-80
2021/11/23 12:32:29;;;;;;;9.35;5.82;;;-0.60;78.70;;;;;;5074244;28;20012;-79
2021/11/23 12:34:54;;;;;;;10.52;3.65;;;-0.60;78.80;;;;;;5074362;28;20025;-79
2021/11/23 12:37:49;;;;;;;9.57;4.57;;;-0.70;78.90;;;;;;5074042;28;20436;-79
2021/11/23 12:40:20;;;;;;;5.15;2.72;;;-0.70;79.30;;;;;;5072495;28;20128;-81
2021/11/23 12:42:52;;;;;;;9.27;3.20;;;-0.70;79.30;;;;;;5071744;28;20113;-79
2021/11/23 12:45:34;;;;;;;8.80;3.25;;;-0.70;79.40;;;;;;5071258;28;20424;-80
2021/11/23 12:48:01;;;;;;;6.35;2.67;;;-0.60;80.10;;;;;;5072226;28;20422;-79
2021/11/23 12:50:32;;;;;;;9.13;3.13;;;-0.70;79.30;;;;;;5072358;28;20501;-80
2021/11/23 12:53:08;;;;;;;11.27;3.20;;;-0.80;79.60;;;;;;5072461;28;20017;-80
2021/11/23 12:55:34;;;;;;;8.32;2.45;;;-0.80;79.80;;;;;;5071762;28;20021;-80